Warner, South Dakota
Current Conditions -  °F | °C
As of 12:53 PM on Sunday 21 Dec 2014 (Local Time) from KABR Reporting Station
Haze Haze  
Wind Chill: 23°   Ceiling: 300
Heat Index: 33°   Visibility: 5mi
Dew Point: 30°   Wind: 14mph
Humidity: 89%   Direction: 140°SE
Pressure: 29.57"   Gusts: NA
Location:  45.33°N, 98.5°W
Report Text: KABR 211853Z AUTO 14012KT 5SM BR OVC003 01/M01 A2957 RMK AO2 SLP027 I1001 T00061011
Loading
Personal Weather Stations






























Interactive Weather Map New forecast layout! Learn more

10-Day Weather Forecast

Advertisements
Track Severe Weather on mobile